Latest Weather Observations for Cerberus

IDV60901

Issued at 8:51 am EST Wednesday 18 September 2019 (issued every 10 minutes, with the page automatically refreshed every 10 minutes)

About weather observations | Map of Melbourne area stations | Latest observations for Melbourne area | Other Formats
Station Details ID: 086361 Name: CERBERUS Lat: -38.36 Lon: 145.18 Height: 12.69 m
Data from the previous 72 hours. | See also: Recent months at Cerberus
Date/Time
EST
Temp
°C
App
Temp
°C
Dew
Point
°C
Rel
Hum
%
Delta-T
°C
Wind Press
QNH
hPa
Press
MSL
hPa
Rain since
9am
mm
Dir  Spd
km/h
Gust
km/h
Spd
kts
Gust
kts
17/07:30pm 8.3 5.7 3.0 69 2.2 SSE 6 9 3 5 1028.9 1028.9 0.2
17/07:00pm 8.7 5.9 3.1 68 2.4 SSE 7 11 4 6 1028.6 1028.6 0.2
17/06:30pm 8.9 6.0 2.7 65 2.6 SSE 7 11 4 6 1028.4 1028.4 0.2
17/06:00pm 9.6 6.3 2.7 62 2.9 SSE 9 19 5 10 1028.3 1028.3 0.2
17/05:30pm 10.4 6.3 2.5 58 3.4 SSE 13 22 7 12 1028.2 1028.2 0.2
17/05:00pm 11.0 6.5 2.3 55 3.7 SSE 15 24 8 13 1028.0 1028.0 0.2
17/04:30pm 11.4 6.6 2.4 54 3.9 S 17 26 9 14 1027.8 1027.8 0.2
17/04:00pm 11.7 6.9 2.5 53 4.0 SSE 17 28 9 15 1027.6 1027.6 0.2
17/03:30pm 12.1 7.4 3.1 54 4.0 SSE 17 24 9 13 1027.8 1027.8 0.2
17/03:00pm 12.2 7.8 2.9 53 4.0 SSE 15 24 8 13 1027.8 1027.8 0.2
17/02:30pm 12.7 8.5 3.6 54 4.1 SSE 15 20 8 11 1027.8 1027.8 0.2
17/02:00pm 12.1 7.3 2.6 52 4.1 SSE 17 28 9 15 1027.9 1027.9 0.2
17/01:30pm 11.9 7.7 1.5 49 4.4 SE 13 30 7 16 1028.2 1028.2 0.2
17/01:00pm 12.2 8.0 1.5 48 4.5 ESE 13 22 7 12 1028.3 1028.3 0.2
17/12:30pm 12.3 8.1 1.6 48 4.6 ESE 13 20 7 11 1028.4 1028.4 0.2
17/12:00pm 12.0 7.7 0.8 46 4.6 E 13 20 7 11 1028.8 1028.8 0.2
17/11:30am 11.9 7.5 0.4 45 4.8 SE 13 19 7 10 1029.0 1029.0 0.2
17/11:00am 11.6 7.5 0.1 45 4.7 SE 11 22 6 12 1028.9 1028.9 0.2
17/10:30am 12.2 7.6 1.5 48 4.5 SSE 15 24 8 13 1028.7 1028.7 0.2
17/10:00am 11.7 7.5 1.4 49 4.3 S 13 24 7 13 1028.8 1028.8 0.2
17/09:30am 11.3 6.9 0.1 46 4.6 ESE 13 20 7 11 1028.7 1028.7 0.0
17/09:00am 11.1 7.0 -0.1 46 4.5 ESE 11 17 6 9 1028.6 1028.6 0.0
17/08:30am 10.9 7.8 1.2 51 4.0 SE 7 13 4 7 1028.6 1028.6 0.0
17/08:00am 10.2 7.4 3.3 62 3.0 ESE 7 13 4 7 1028.4 1028.4 0.0
17/07:30am 8.9 6.8 3.7 70 2.3 ENE 4 6 2 3 1028.1 1028.1 0.0
17/07:00am 5.1 3.2 0.7 73 1.7 CALM 0 0 0 0 1027.9 1027.9 0.0
17/06:30am 5.3 2.6 0.1 69 2.0 ENE 4 6 2 3 1027.4 1027.4 0.0
17/06:00am 6.1 3.4 0.0 65 2.3 SE 4 9 2 5 1027.4 1027.4 0.0
17/05:30am 6.7 3.6 0.2 63 2.5 SE 6 9 3 5 1027.0 1027.0 0.0
17/05:00am 6.8 3.7 0.3 63 2.5 SE 6 9 3 5 1026.8 1026.8 0.0
17/04:30am 6.4 3.0 -0.3 62 2.6 SE 7 13 4 7 1026.6 1026.6 0.0
17/04:00am 6.4 3.3 -0.1 63 2.5 SE 6 9 3 5 1026.5 1026.5 0.0
17/03:30am 6.5 3.4 0.2 64 2.4 SSE 6 9 3 5 1026.3 1026.3 0.0
17/03:00am 6.7 3.6 0.4 64 2.4 SSE 6 9 3 5 1026.3 1026.3 0.0
17/02:30am 7.1 4.1 0.5 63 2.6 SSE 6 13 3 7 1026.4 1026.4 0.0
17/02:00am 7.2 4.0 0.6 63 2.6 SSE 7 13 4 7 1026.4 1026.4 0.0
17/01:30am 7.4 4.2 0.6 62 2.7 SSE 7 15 4 8 1026.5 1026.5 0.0
17/01:00am 7.7 4.3 1.8 66 2.4 SSE 9 20 5 11 1026.7 1026.7 0.0
17/12:30am 7.9 4.1 2.0 66 2.4 SSE 11 19 6 10 1026.8 1026.8 0.0
17/12:00am 7.4 4.0 1.9 68 2.2 SSE 9 13 5 7 1026.7 1026.7 0.0
 
Date/Time
EST
Temp
°C
App
Temp
°C
Dew
Point
°C
Rel
Hum
%
Delta-T
°C
Wind Press
QNH
hPa
Press
MSL
hPa
Rain since
9am
mm
Dir  Spd
km/h
Gust
km/h
Spd
kts
Gust
kts
16/11:30pm 6.9 3.9 2.2 72 1.9 SSE 7 11 4 6 1026.6 1026.6 0.0
16/11:00pm 7.0 4.0 1.9 70 2.1 SE 7 15 4 8 1026.7 1026.7 0.0
16/10:30pm 8.7 4.5 1.6 61 2.9 S 13 19 7 10 1026.5 1026.5 0.0
16/10:00pm 8.8 4.0 0.3 55 3.4 S 15 24 8 13 1026.4 1026.4 0.0
16/09:30pm 9.1 3.6 0.3 54 3.5 S 19 28 10 15 1026.0 1026.0 0.0
16/09:00pm 8.8 4.6 1.9 62 2.8 S 13 28 7 15 1025.9 1025.9 0.0
16/08:30pm 8.7 4.4 0.7 57 3.2 S 13 22 7 12 1025.7 1025.7 0.0
16/08:00pm 8.8 4.1 1.0 58 3.1 S 15 24 8 13 1025.6 1025.6 0.0
16/07:30pm 8.7 4.0 0.9 58 3.2 SSW 15 26 8 14 1025.4 1025.4 0.0
16/07:00pm 8.9 3.8 0.9 57 3.2 SSW 17 26 9 14 1025.1 1025.1 0.0
16/06:30pm 8.7 5.0 2.1 63 2.7 SSW 11 24 6 13 1024.7 1024.7 0.0
16/06:00pm 8.2 4.6 3.1 70 2.2 WSW 11 17 6 9 1024.4 1024.4 0.0
16/05:30pm 7.8 2.5 2.9 71 2.1 WSW 20 32 11 17 1024.1 1024.1 0.0
16/05:00pm 10.5 5.9 1.6 54 3.7 SSW 15 22 8 12 1023.5 1023.5 0.0
16/04:30pm 10.8 5.4 1.4 52 3.9 SW 19 28 10 15 1023.2 1023.2 0.0
16/04:00pm 10.4 5.2 2.7 59 3.3 SSW 19 33 10 18 1022.8 1022.8 0.0
16/03:30pm 10.9 6.0 2.0 54 3.8 SW 17 28 9 15 1022.6 1022.6 0.0
16/03:00pm 11.6 6.3 2.9 55 3.8 SSW 20 32 11 17 1022.5 1022.5 0.0
16/02:30pm 11.5 6.3 2.3 53 4.0 SSW 19 30 10 16 1022.1 1022.1 0.0
16/02:00pm 11.5 6.4 3.0 56 3.7 SSW 19 30 10 16 1021.9 1021.9 0.0
16/01:30pm 10.4 4.6 4.3 66 2.7 S 24 37 13 20 1021.8 1021.8 0.0
16/01:00pm 12.3 6.7 3.3 54 4.0 SSW 22 33 12 18 1021.3 1021.3 0.0
16/12:30pm 12.2 7.1 3.9 57 3.7 SSW 20 32 11 17 1021.3 1021.3 0.0
16/12:00pm 11.6 5.3 1.5 50 4.2 SSW 24 37 13 20 1021.3 1021.3 0.0
16/11:30am 12.0 6.0 3.3 55 3.8 SSW 24 33 13 18 1021.1 1021.1 0.0
16/11:00am 11.9 6.2 2.6 53 4.0 SW 22 33 12 18 1021.0 1021.0 0.0
16/10:30am 11.6 6.8 4.8 63 3.1 SSW 19 32 10 17 1020.7 1020.7 0.0
16/10:00am 11.5 6.3 3.3 57 3.6 SSW 20 32 11 17 1020.7 1020.7 0.0
16/09:30am 10.8 6.5 3.1 59 3.3 SW 15 26 8 14 1020.5 1020.5 0.0
16/09:00am 10.7 5.6 2.8 58 3.4 SW 19 30 10 16 1020.0 1020.0 19.4
16/08:30am 10.9 5.8 3.2 59 3.4 SSW 19 30 10 16 1019.7 1019.7 19.4
16/08:00am 10.7 6.2 4.4 65 2.8 SW 17 26 9 14 1019.5 1019.5 19.4
16/07:30am 10.3 6.1 3.6 63 2.9 SW 15 24 8 13 1019.2 1019.2 19.4
16/07:00am 9.3 6.2 3.7 68 2.4 WSW 9 17 5 9 1018.9 1018.9 19.4
16/06:30am 9.9 5.8 4.3 68 2.5 SW 15 32 8 17 1018.4 1018.4 19.4
16/06:00am 9.6 6.4 6.7 82 1.4 WSW 13 28 7 15 1018.0 1018.0 19.4
16/05:30am 8.9 6.4 6.5 85 1.1 WSW 9 13 5 7 1017.5 1017.5 19.4
16/05:00am 9.7 6.1 6.8 82 1.4 WSW 15 28 8 15 1017.5 1017.5 19.4
16/04:30am 10.2 7.8 7.1 81 1.5 WNW 9 13 5 7 1017.2 1017.2 19.0
16/04:00am 10.2 7.9 7.4 83 1.3 W 9 15 5 8 1016.9 1016.9 19.0
16/03:30am 9.7 7.9 7.1 84 1.2 NW 6 9 3 5 1016.3 1016.3 19.0
16/03:00am 9.9 8.1 7.2 83 1.3 WNW 6 11 3 6 1016.0 1016.0 19.0
16/02:30am 9.8 7.1 7.2 84 1.2 WSW 11 17 6 9 1016.0 1016.0 18.8
16/02:00am 10.1 6.7 7.7 85 1.1 WSW 15 24 8 13 1016.1 1016.1 18.6
16/01:30am 10.6 7.5 8.9 89 0.8 WSW 15 24 8 13 1015.7 1015.7 18.6
16/01:00am 10.5 7.8 8.9 90 0.8 WSW 13 24 7 13 1015.6 1015.6 18.4
16/12:30am 10.3 8.7 8.7 90 0.8 WSW 7 13 4 7 1015.2 1015.2 18.0
16/12:00am 10.3 7.2 8.7 90 0.8 SW 15 22 8 12 1015.2 1015.2 17.4
 
Date/Time
EST
Temp
°C
App
Temp
°C
Dew
Point
°C
Rel
Hum
%
Delta-T
°C
Wind Press
QNH
hPa
Press
MSL
hPa
Rain since
9am
mm
Dir  Spd
km/h
Gust
km/h
Spd
kts
Gust
kts
15/11:30pm 10.6 7.5 9.0 90 0.8 WSW 15 24 8 13 1015.2 1015.2 15.2
15/11:00pm 11.2 7.9 9.6 90 0.8 SW 17 28 9 15 1014.6 1014.6 13.4
15/10:30pm 12.4 10.4 10.1 86 1.2 WSW 11 20 6 11 1014.2 1014.2 12.8
15/10:00pm 13.9 10.2 11.6 86 1.2 NW 22 46 12 25 1014.6 1014.6 11.4
15/09:30pm 14.4 13.0 12.1 86 1.2 NNW 11 24 6 13 1014.2 1014.2 10.4
15/09:00pm 14.0 12.5 11.9 87 1.1 NW 11 26 6 14 1013.9 1013.9 10.4
15/08:30pm 14.1 12.7 12.1 88 1.1 NNW 11 24 6 13 1014.2 1014.2 10.4
15/08:00pm 14.3 11.2 12.2 87 1.1 NNW 20 37 11 20 1014.1 1014.1 10.2
15/07:30pm 14.5 12.3 12.2 86 1.2 NNW 15 24 8 13 1014.6 1014.6 8.8
15/07:00pm 14.8 10.6 12.3 85 1.4 WNW 26 37 14 20 1015.4 1015.4 8.0
15/06:30pm 14.9 12.3 12.0 83 1.6 NW 17 26 9 14 1015.3 1015.3 5.8
15/06:00pm 14.5 13.0 12.0 85 1.4 NW 11 19 6 10 1014.4 1014.4 5.2
15/05:30pm 14.6 12.8 12.1 85 1.4 NNW 13 22 7 12 1013.9 1013.9 4.4
15/05:00pm 14.7 12.9 12.2 85 1.4 N 13 20 7 11 1013.2 1013.3 4.4
15/04:30pm 15.2 11.8 12.5 84 1.5 WNW 22 35 12 19 1014.7 1014.7 3.2
15/04:00pm 15.0 10.4 11.0 77 2.1 NW 26 46 14 25 1015.1 1015.1 1.8
15/03:57pm 15.1 10.1 10.9 76 2.2 WNW 28 46 15 25 1015.0 1015.0 1.8
15/03:30pm 16.1 14.2 10.6 70 2.9 NNW 11 20 6 11 1013.4 1013.5 0.4
15/03:00pm 16.5 14.5 10.1 66 3.4 NNW 11 20 6 11 1013.0 1013.1 0.0
15/02:30pm 17.3 13.7 8.2 55 4.6 NNW 17 32 9 17 1013.0 1013.1 0.0
15/02:00pm 17.7 14.8 8.0 53 4.9 NNW 13 30 7 16 1013.6 1013.6 0.0
15/01:30pm 17.6 13.3 7.1 50 5.2 NW 19 26 10 14 1014.8 1014.8 0.0
15/01:00pm 19.3 14.8 6.1 42 6.5 NNW 19 33 10 18 1014.3 1014.3 0.0
15/12:30pm 18.7 13.7 6.5 45 6.1 NNW 22 39 12 21 1015.1 1015.1 0.0
15/12:00pm 18.1 13.1 6.3 46 5.8 NNW 22 43 12 23 1015.3 1015.3 0.0
15/11:30am 17.0 12.7 6.8 51 5.0 NNW 19 33 10 18 1015.8 1015.8 0.0
15/11:00am 18.0 12.9 6.2 46 5.8 NNW 22 39 12 21 1015.8 1015.8 0.0
15/10:30am 17.9 14.4 7.0 49 5.4 NNW 15 30 8 16 1016.2 1016.2 0.0
15/10:00am 16.9 11.4 7.5 54 4.7 NNW 26 41 14 22 1016.7 1016.7 0.0
15/09:30am 15.9 11.1 7.4 57 4.2 NNW 22 33 12 18 1017.0 1017.0 0.0
15/09:00am 14.8 10.6 7.4 61 3.6 NNW 19 35 10 19 1017.3 1017.3 0.4

Latest Capital City Observations: Canberra | Sydney | Melbourne | Brisbane | Adelaide | Perth | Hobart | Darwin

Other formats

Comma delimited format used in spreadsheet applications
http://www.bom.gov.au/fwo/IDV60901/IDV60901.94898.axf

JavaScript Object Notation format (JSON) in row-major order
http://www.bom.gov.au/fwo/IDV60901/IDV60901.94898.json

Data quality

Most of these data are generated automatically and are frequently updated. Quality checks on data are not normally performed. It is possible for incorrect values to appear. Refer to information at About Latest Weather Observations and please check the disclaimer before using these data.